sensor_id;sensor_type;location;lat;lon;timestamp;temperature;humidity
11744;DHT22;5929;51.906;7.674;2022-07-15T00:01:41;16.50;94.90
11744;DHT22;5929;51.906;7.674;2022-07-15T00:04:07;16.50;95.20
11744;DHT22;5929;51.906;7.674;2022-07-15T00:06:35;16.40;95.30
11744;DHT22;5929;51.906;7.674;2022-07-15T00:09:02;16.30;95.60
11744;DHT22;5929;51.906;7.674;2022-07-15T00:11:29;16.10;95.70
11744;DHT22;5929;51.906;7.674;2022-07-15T00:13:59;16.20;95.90
11744;DHT22;5929;51.906;7.674;2022-07-15T00:16:26;16.20;95.90
11744;DHT22;5929;51.906;7.674;2022-07-15T00:18:55;16.20;96.20
11744;DHT22;5929;51.906;7.674;2022-07-15T00:21:23;16.10;96.10
11744;DHT22;5929;51.906;7.674;2022-07-15T00:23:49;16.10;96.10
11744;DHT22;5929;51.906;7.674;2022-07-15T00:26:16;16.10;96.60
11744;DHT22;5929;51.906;7.674;2022-07-15T00:28:43;16.00;96.40
11744;DHT22;5929;51.906;7.674;2022-07-15T00:31:11;16.00;96.70
11744;DHT22;5929;51.906;7.674;2022-07-15T00:33:39;15.90;96.80
11744;DHT22;5929;51.906;7.674;2022-07-15T00:36:06;15.90;96.90
11744;DHT22;5929;51.906;7.674;2022-07-15T00:38:33;16.00;97.00
11744;DHT22;5929;51.906;7.674;2022-07-15T00:41:00;15.90;97.40
11744;DHT22;5929;51.906;7.674;2022-07-15T00:43:27;15.80;97.70
11744;DHT22;5929;51.906;7.674;2022-07-15T00:45:55;15.80;97.70
11744;DHT22;5929;51.906;7.674;2022-07-15T00:48:23;15.70;98.00
11744;DHT22;5929;51.906;7.674;2022-07-15T00:50:50;15.60;98.30
11744;DHT22;5929;51.906;7.674;2022-07-15T00:53:18;15.70;98.30
11744;DHT22;5929;51.906;7.674;2022-07-15T00:55:46;15.70;98.50
11744;DHT22;5929;51.906;7.674;2022-07-15T00:58:16;15.70;98.40
11744;DHT22;5929;51.906;7.674;2022-07-15T01:00:43;15.70;98.50
11744;DHT22;5929;51.906;7.674;2022-07-15T01:03:11;15.50;98.80
11744;DHT22;5929;51.906;7.674;2022-07-15T01:05:39;15.60;98.90
11744;DHT22;5929;51.906;7.674;2022-07-15T01:08:07;15.50;99.00
11744;DHT22;5929;51.906;7.674;2022-07-15T01:10:34;15.50;99.20
11744;DHT22;5929;51.906;7.674;2022-07-15T01:13:02;15.40;99.40
11744;DHT22;5929;51.906;7.674;2022-07-15T01:15:30;15.30;99.90
11744;DHT22;5929;51.906;7.674;2022-07-15T01:17:59;15.30;99.90
11744;DHT22;5929;51.906;7.674;2022-07-15T01:20:27;15.30;99.90
11744;DHT22;5929;51.906;7.674;2022-07-15T01:22:56;15.20;99.90
11744;DHT22;5929;51.906;7.674;2022-07-15T01:25:23;15.30;99.90
11744;DHT22;5929;51.906;7.674;2022-07-15T01:27:50;15.30;99.90
11744;DHT22;5929;51.906;7.674;2022-07-15T01:30:17;15.30;99.90
11744;DHT22;5929;51.906;7.674;2022-07-15T01:32:43;15.20;99.90
11744;DHT22;5929;51.906;7.674;2022-07-15T01:35:10;15.20;99.90
11744;DHT22;5929;51.906;7.674;2022-07-15T01:37:37;15.10;99.90
11744;DHT22;5929;51.906;7.674;2022-07-15T01:40:07;15.10;99.90
11744;DHT22;5929;51.906;7.674;2022-07-15T01:42:34;15.00;99.90
11744;DHT22;5929;51.906;7.674;2022-07-15T01:45:01;15.00;99.90
11744;DHT22;5929;51.906;7.674;2022-07-15T01:47:28;14.90;99.90
11744;DHT22;5929;51.906;7.674;2022-07-15T01:49:54;14.90;99.90
11744;DHT22;5929;51.906;7.674;2022-07-15T01:52:22;14.90;99.90
11744;DHT22;5929;51.906;7.674;2022-07-15T01:54:50;14.80;99.90
11744;DHT22;5929;51.906;7.674;2022-07-15T01:57:19;14.80;99.90
11744;DHT22;5929;51.906;7.674;2022-07-15T01:59:45;14.80;99.90
11744;DHT22;5929;51.906;7.674;2022-07-15T02:02:12;14.70;99.90
11744;DHT22;5929;51.906;7.674;2022-07-15T02:04:39;14.70;99.90
11744;DHT22;5929;51.906;7.674;2022-07-15T02:07:06;14.60;99.90
11744;DHT22;5929;51.906;7.674;2022-07-15T02:09:33;14.50;99.90
11744;DHT22;5929;51.906;7.674;2022-07-15T02:12:00;14.50;99.90
11744;DHT22;5929;51.906;7.674;2022-07-15T02:14:29;14.50;99.90
11744;DHT22;5929;51.906;7.674;2022-07-15T02:16:55;14.40;99.90
11744;DHT22;5929;51.906;7.674;2022-07-15T02:19:22;14.40;99.90
11744;DHT22;5929;51.906;7.674;2022-07-15T02:21:49;14.30;99.90
11744;DHT22;5929;51.906;7.674;2022-07-15T02:24:16;14.20;99.90
11744;DHT22;5929;51.906;7.674;2022-07-15T02:26:43;14.30;99.90
11744;DHT22;5929;51.906;7.674;2022-07-15T02:29:10;14.20;99.90
11744;DHT22;5929;51.906;7.674;2022-07-15T02:31:38;14.20;99.90
11744;DHT22;5929;51.906;7.674;2022-07-15T02:34:05;14.20;99.90
11744;DHT22;5929;51.906;7.674;2022-07-15T02:36:32;14.00;99.90
11744;DHT22;5929;51.906;7.674;2022-07-15T02:38:59;14.10;99.90
11744;DHT22;5929;51.906;7.674;2022-07-15T02:41:26;14.00;99.90
11744;DHT22;5929;51.906;7.674;2022-07-15T02:43:53;13.90;99.90
11744;DHT22;5929;51.906;7.674;2022-07-15T02:46:19;14.00;99.90
11744;DHT22;5929;51.906;7.674;2022-07-15T02:48:48;14.10;99.90
11744;DHT22;5929;51.906;7.674;2022-07-15T02:51:17;14.10;99.90
11744;DHT22;5929;51.906;7.674;2022-07-15T02:53:44;14.00;99.90
11744;DHT22;5929;51.906;7.674;2022-07-15T02:56:10;13.80;99.90
11744;DHT22;5929;51.906;7.674;2022-07-15T02:58:37;13.80;99.90
11744;DHT22;5929;51.906;7.674;2022-07-15T03:01:04;13.80;99.90
11744;DHT22;5929;51.906;7.674;2022-07-15T03:03:31;13.80;99.90
11744;DHT22;5929;51.906;7.674;2022-07-15T03:06:00;13.80;99.90
11744;DHT22;5929;51.906;7.674;2022-07-15T03:08:27;13.90;99.90
11744;DHT22;5929;51.906;7.674;2022-07-15T03:10:54;14.00;99.90
11744;DHT22;5929;51.906;7.674;2022-07-15T03:13:24;13.90;99.90
11744;DHT22;5929;51.906;7.674;2022-07-15T03:15:51;13.90;99.90
11744;DHT22;5929;51.906;7.674;2022-07-15T03:18:18;13.90;99.90
11744;DHT22;5929;51.906;7.674;2022-07-15T03:20:44;13.80;99.90
11744;DHT22;5929;51.906;7.674;2022-07-15T03:23:14;13.80;99.90
11744;DHT22;5929;51.906;7.674;2022-07-15T03:25:40;13.80;99.90
11744;DHT22;5929;51.906;7.674;2022-07-15T03:28:07;13.80;99.90
11744;DHT22;5929;51.906;7.674;2022-07-15T03:30:34;13.70;99.90
11744;DHT22;5929;51.906;7.674;2022-07-15T03:33:01;13.60;99.90
11744;DHT22;5929;51.906;7.674;2022-07-15T03:35:31;13.70;99.90
11744;DHT22;5929;51.906;7.674;2022-07-15T03:37:57;13.60;99.90
11744;DHT22;5929;51.906;7.674;2022-07-15T03:40:26;13.50;99.90
11744;DHT22;5929;51.906;7.674;2022-07-15T03:42:52;13.40;99.90
11744;DHT22;5929;51.906;7.674;2022-07-15T03:45:19;13.40;99.90
11744;DHT22;5929;51.906;7.674;2022-07-15T03:47:46;13.60;99.90
11744;DHT22;5929;51.906;7.674;2022-07-15T03:50:13;13.60;99.90
11744;DHT22;5929;51.906;7.674;2022-07-15T03:52:40;13.50;99.90
11744;DHT22;5929;51.906;7.674;2022-07-15T03:55:08;13.50;99.90
11744;DHT22;5929;51.906;7.674;2022-07-15T03:57:37;13.40;99.90
11744;DHT22;5929;51.906;7.674;2022-07-15T04:00:06;13.40;99.90
11744;DHT22;5929;51.906;7.674;2022-07-15T04:02:33;13.30;99.90
11744;DHT22;5929;51.906;7.674;2022-07-15T04:05:00;13.30;99.90
11744;DHT22;5929;51.906;7.674;2022-07-15T04:07:27;13.40;99.90
11744;DHT22;5929;51.906;7.674;2022-07-15T04:09:53;13.30;99.90
11744;DHT22;5929;51.906;7.674;2022-07-15T04:12:20;13.30;99.90
11744;DHT22;5929;51.906;7.674;2022-07-15T04:14:48;13.30;99.90
11744;DHT22;5929;51.906;7.674;2022-07-15T04:17:15;13.30;99.90
11744;DHT22;5929;51.906;7.674;2022-07-15T04:19:42;13.40;99.90
11744;DHT22;5929;51.906;7.674;2022-07-15T04:22:09;13.40;99.90
11744;DHT22;5929;51.906;7.674;2022-07-15T04:24:36;13.40;99.90
11744;DHT22;5929;51.906;7.674;2022-07-15T04:27:03;13.50;99.90
11744;DHT22;5929;51.906;7.674;2022-07-15T04:29:31;13.50;99.90
11744;DHT22;5929;51.906;7.674;2022-07-15T04:31:59;13.50;99.90
11744;DHT22;5929;51.906;7.674;2022-07-15T04:34:26;13.50;99.90
11744;DHT22;5929;51.906;7.674;2022-07-15T04:36:53;13.40;99.90
11744;DHT22;5929;51.906;7.674;2022-07-15T04:39:19;13.40;99.90
11744;DHT22;5929;51.906;7.674;2022-07-15T04:41:46;13.40;99.90
11744;DHT22;5929;51.906;7.674;2022-07-15T04:44:17;13.40;99.90
11744;DHT22;5929;51.906;7.674;2022-07-15T04:46:44;13.40;99.90
11744;DHT22;5929;51.906;7.674;2022-07-15T04:49:12;13.50;99.90
11744;DHT22;5929;51.906;7.674;2022-07-15T04:51:56;13.50;99.90
11744;DHT22;5929;51.906;7.674;2022-07-15T04:54:23;13.50;99.90
11744;DHT22;5929;51.906;7.674;2022-07-15T04:56:51;13.60;99.90
11744;DHT22;5929;51.906;7.674;2022-07-15T04:59:18;13.60;99.90
11744;DHT22;5929;51.906;7.674;2022-07-15T05:01:45;13.60;99.90
11744;DHT22;5929;51.906;7.674;2022-07-15T05:04:13;13.60;99.90
11744;DHT22;5929;51.906;7.674;2022-07-15T05:06:40;13.80;99.90
11744;DHT22;5929;51.906;7.674;2022-07-15T05:09:06;13.80;99.90
11744;DHT22;5929;51.906;7.674;2022-07-15T05:11:33;13.90;99.90
11744;DHT22;5929;51.906;7.674;2022-07-15T05:14:00;14.00;99.90
11744;DHT22;5929;51.906;7.674;2022-07-15T05:16:27;14.10;99.90
11744;DHT22;5929;51.906;7.674;2022-07-15T05:18:54;14.20;99.90
11744;DHT22;5929;51.906;7.674;2022-07-15T05:21:22;14.20;99.90
11744;DHT22;5929;51.906;7.674;2022-07-15T05:23:49;14.30;99.90
11744;DHT22;5929;51.906;7.674;2022-07-15T05:26:16;14.40;99.90
11744;DHT22;5929;51.906;7.674;2022-07-15T05:28:44;14.40;99.90
11744;DHT22;5929;51.906;7.674;2022-07-15T05:31:11;14.40;99.90
11744;DHT22;5929;51.906;7.674;2022-07-15T05:33:38;14.50;99.90
11744;DHT22;5929;51.906;7.674;2022-07-15T05:36:05;14.50;99.90
11744;DHT22;5929;51.906;7.674;2022-07-15T05:38:33;14.60;99.90
11744;DHT22;5929;51.906;7.674;2022-07-15T05:41:00;14.70;99.90
11744;DHT22;5929;51.906;7.674;2022-07-15T05:43:27;14.80;99.90
11744;DHT22;5929;51.906;7.674;2022-07-15T05:45:53;14.90;99.90
11744;DHT22;5929;51.906;7.674;2022-07-15T05:48:20;15.00;99.90
11744;DHT22;5929;51.906;7.674;2022-07-15T05:50:49;15.00;99.90
11744;DHT22;5929;51.906;7.674;2022-07-15T05:53:16;15.10;99.90
11744;DHT22;5929;51.906;7.674;2022-07-15T05:55:44;15.20;99.90
11744;DHT22;5929;51.906;7.674;2022-07-15T05:58:11;15.30;99.90
11744;DHT22;5929;51.906;7.674;2022-07-15T06:00:39;15.20;99.90
11744;DHT22;5929;51.906;7.674;2022-07-15T06:03:06;15.30;99.90
11744;DHT22;5929;51.906;7.674;2022-07-15T06:05:33;15.30;99.90
11744;DHT22;5929;51.906;7.674;2022-07-15T06:08:00;15.40;99.90
11744;DHT22;5929;51.906;7.674;2022-07-15T06:10:27;15.40;99.90
11744;DHT22;5929;51.906;7.674;2022-07-15T06:12:55;15.50;99.90
11744;DHT22;5929;51.906;7.674;2022-07-15T06:15:22;15.50;99.90
11744;DHT22;5929;51.906;7.674;2022-07-15T06:17:49;15.60;99.90
11744;DHT22;5929;51.906;7.674;2022-07-15T06:20:17;15.70;99.90
11744;DHT22;5929;51.906;7.674;2022-07-15T06:22:44;15.60;99.90
11744;DHT22;5929;51.906;7.674;2022-07-15T06:25:11;15.60;99.90
11744;DHT22;5929;51.906;7.674;2022-07-15T06:27:38;15.60;99.90
11744;DHT22;5929;51.906;7.674;2022-07-15T06:30:08;15.60;99.90
11744;DHT22;5929;51.906;7.674;2022-07-15T06:32:35;15.60;99.90
11744;DHT22;5929;51.906;7.674;2022-07-15T06:35:03;15.50;99.90
11744;DHT22;5929;51.906;7.674;2022-07-15T06:37:30;15.50;99.90
11744;DHT22;5929;51.906;7.674;2022-07-15T06:39:57;15.40;99.90
11744;DHT22;5929;51.906;7.674;2022-07-15T06:42:24;15.50;99.90
11744;DHT22;5929;51.906;7.674;2022-07-15T06:44:51;15.40;99.90
11744;DHT22;5929;51.906;7.674;2022-07-15T06:47:19;15.50;99.90
11744;DHT22;5929;51.906;7.674;2022-07-15T06:49:46;15.50;99.90
11744;DHT22;5929;51.906;7.674;2022-07-15T06:52:14;15.60;99.90
11744;DHT22;5929;51.906;7.674;2022-07-15T06:54:41;15.70;99.90
11744;DHT22;5929;51.906;7.674;2022-07-15T06:57:08;15.70;99.90
11744;DHT22;5929;51.906;7.674;2022-07-15T06:59:35;15.80;99.90
11744;DHT22;5929;51.906;7.674;2022-07-15T07:02:02;15.80;99.90
11744;DHT22;5929;51.906;7.674;2022-07-15T07:04:30;15.80;99.90
11744;DHT22;5929;51.906;7.674;2022-07-15T07:06:57;15.90;99.90
11744;DHT22;5929;51.906;7.674;2022-07-15T07:09:24;16.00;99.90
11744;DHT22;5929;51.906;7.674;2022-07-15T07:11:51;16.10;99.90
11744;DHT22;5929;51.906;7.674;2022-07-15T07:14:18;16.10;99.90
11744;DHT22;5929;51.906;7.674;2022-07-15T07:16:45;16.10;99.90
11744;DHT22;5929;51.906;7.674;2022-07-15T07:19:12;16.20;99.90
11744;DHT22;5929;51.906;7.674;2022-07-15T07:21:40;16.20;99.90
11744;DHT22;5929;51.906;7.674;2022-07-15T07:24:07;16.20;99.90
11744;DHT22;5929;51.906;7.674;2022-07-15T07:26:34;16.20;99.90
11744;DHT22;5929;51.906;7.674;2022-07-15T07:29:03;16.30;99.90
11744;DHT22;5929;51.906;7.674;2022-07-15T07:31:30;16.40;99.80
11744;DHT22;5929;51.906;7.674;2022-07-15T07:33:58;16.40;99.90
11744;DHT22;5929;51.906;7.674;2022-07-15T07:36:25;16.50;99.90
11744;DHT22;5929;51.906;7.674;2022-07-15T07:38:54;16.80;99.50
11744;DHT22;5929;51.906;7.674;2022-07-15T07:41:21;16.90;98.20
11744;DHT22;5929;51.906;7.674;2022-07-15T07:43:48;16.90;97.50
11744;DHT22;5929;51.906;7.674;2022-07-15T07:46:15;16.90;97.40
11744;DHT22;5929;51.906;7.674;2022-07-15T07:48:42;16.90;97.40
11744;DHT22;5929;51.906;7.674;2022-07-15T07:51:09;16.80;97.50
11744;DHT22;5929;51.906;7.674;2022-07-15T07:53:36;16.70;97.10
11744;DHT22;5929;51.906;7.674;2022-07-15T07:56:05;16.70;96.90
11744;DHT22;5929;51.906;7.674;2022-07-15T07:58:32;16.80;96.50
11744;DHT22;5929;51.906;7.674;2022-07-15T08:00:59;16.90;96.30
11744;DHT22;5929;51.906;7.674;2022-07-15T08:03:26;17.00;96.40
11744;DHT22;5929;51.906;7.674;2022-07-15T08:05:54;17.00;96.40
11744;DHT22;5929;51.906;7.674;2022-07-15T08:08:21;17.10;96.30
11744;DHT22;5929;51.906;7.674;2022-07-15T08:10:51;17.00;95.50
11744;DHT22;5929;51.906;7.674;2022-07-15T08:13:21;17.20;96.10
11744;DHT22;5929;51.906;7.674;2022-07-15T08:15:48;17.30;95.40
11744;DHT22;5929;51.906;7.674;2022-07-15T08:18:15;17.50;94.70
11744;DHT22;5929;51.906;7.674;2022-07-15T08:20:42;17.70;94.00
11744;DHT22;5929;51.906;7.674;2022-07-15T08:23:09;17.80;94.10
11744;DHT22;5929;51.906;7.674;2022-07-15T08:25:37;18.00;92.30
11744;DHT22;5929;51.906;7.674;2022-07-15T08:28:05;18.00;92.20
11744;DHT22;5929;51.906;7.674;2022-07-15T08:30:36;18.00;92.30
11744;DHT22;5929;51.906;7.674;2022-07-15T08:33:03;17.80;92.50
11744;DHT22;5929;51.906;7.674;2022-07-15T08:35:30;17.80;93.00
11744;DHT22;5929;51.906;7.674;2022-07-15T08:37:57;17.70;93.10
11744;DHT22;5929;51.906;7.674;2022-07-15T08:40:26;17.70;93.20
11744;DHT22;5929;51.906;7.674;2022-07-15T08:42:53;17.60;92.80
11744;DHT22;5929;51.906;7.674;2022-07-15T08:45:20;17.60;93.10
11744;DHT22;5929;51.906;7.674;2022-07-15T08:47:51;17.60;92.70
11744;DHT22;5929;51.906;7.674;2022-07-15T08:50:19;17.70;92.90
11744;DHT22;5929;51.906;7.674;2022-07-15T08:52:46;17.90;92.70
11744;DHT22;5929;51.906;7.674;2022-07-15T08:55:14;18.20;91.30
11744;DHT22;5929;51.906;7.674;2022-07-15T08:57:45;18.40;90.90
11744;DHT22;5929;51.906;7.674;2022-07-15T09:00:13;18.70;91.00
11744;DHT22;5929;51.906;7.674;2022-07-15T09:02:40;18.80;90.50
11744;DHT22;5929;51.906;7.674;2022-07-15T09:05:19;18.50;88.90
11744;DHT22;5929;51.906;7.674;2022-07-15T09:07:56;18.30;89.70
11744;DHT22;5929;51.906;7.674;2022-07-15T09:10:41;18.20;90.20
11744;DHT22;5929;51.906;7.674;2022-07-15T09:13:09;17.90;90.30
11744;DHT22;5929;51.906;7.674;2022-07-15T09:15:37;17.90;90.40
11744;DHT22;5929;51.906;7.674;2022-07-15T09:18:07;18.10;90.60
11744;DHT22;5929;51.906;7.674;2022-07-15T09:20:35;18.00;90.30
11744;DHT22;5929;51.906;7.674;2022-07-15T09:23:03;17.90;90.30
11744;DHT22;5929;51.906;7.674;2022-07-15T09:25:30;18.00;89.60
11744;DHT22;5929;51.906;7.674;2022-07-15T09:27:59;18.20;89.80
11744;DHT22;5929;51.906;7.674;2022-07-15T09:30:29;18.30;86.60
11744;DHT22;5929;51.906;7.674;2022-07-15T09:33:16;18.20;86.10
11744;DHT22;5929;51.906;7.674;2022-07-15T09:36:05;18.40;87.30
11744;DHT22;5929;51.906;7.674;2022-07-15T09:38:35;18.60;87.50
11744;DHT22;5929;51.906;7.674;2022-07-15T09:41:06;18.80;86.80
11744;DHT22;5929;51.906;7.674;2022-07-15T09:43:42;18.80;88.30
11744;DHT22;5929;51.906;7.674;2022-07-15T09:46:09;19.00;86.70
11744;DHT22;5929;51.906;7.674;2022-07-15T09:48:39;19.30;86.10
11744;DHT22;5929;51.906;7.674;2022-07-15T09:51:08;19.20;85.00
11744;DHT22;5929;51.906;7.674;2022-07-15T09:53:36;19.10;84.90
11744;DHT22;5929;51.906;7.674;2022-07-15T09:56:05;19.10;85.80
11744;DHT22;5929;51.906;7.674;2022-07-15T09:58:33;19.20;84.30
11744;DHT22;5929;51.906;7.674;2022-07-15T10:01:02;19.20;84.60
11744;DHT22;5929;51.906;7.674;2022-07-15T10:03:32;19.20;84.20
11744;DHT22;5929;51.906;7.674;2022-07-15T10:06:00;19.20;82.80
11744;DHT22;5929;51.906;7.674;2022-07-15T10:08:30;19.30;82.50
11744;DHT22;5929;51.906;7.674;2022-07-15T10:10:58;19.40;82.70
11744;DHT22;5929;51.906;7.674;2022-07-15T10:13:39;19.50;84.30
11744;DHT22;5929;51.906;7.674;2022-07-15T10:16:18;19.60;79.40
11744;DHT22;5929;51.906;7.674;2022-07-15T10:18:53;19.60;79.80
11744;DHT22;5929;51.906;7.674;2022-07-15T10:21:31;19.50;79.40
11744;DHT22;5929;51.906;7.674;2022-07-15T10:24:30;19.60;80.30
11744;DHT22;5929;51.906;7.674;2022-07-15T10:27:12;20.00;79.10
11744;DHT22;5929;51.906;7.674;2022-07-15T10:29:42;20.10;78.40
11744;DHT22;5929;51.906;7.674;2022-07-15T10:32:09;20.00;79.00
11744;DHT22;5929;51.906;7.674;2022-07-15T10:34:38;20.20;77.20
11744;DHT22;5929;51.906;7.674;2022-07-15T10:37:07;20.00;77.90
11744;DHT22;5929;51.906;7.674;2022-07-15T10:39:59;19.80;77.10
11744;DHT22;5929;51.906;7.674;2022-07-15T10:42:59;19.60;76.60
11744;DHT22;5929;51.906;7.674;2022-07-15T10:45:27;19.60;77.80
11744;DHT22;5929;51.906;7.674;2022-07-15T10:48:24;19.60;77.30
11744;DHT22;5929;51.906;7.674;2022-07-15T10:50:51;19.70;77.30
11744;DHT22;5929;51.906;7.674;2022-07-15T10:53:22;19.90;78.40
11744;DHT22;5929;51.906;7.674;2022-07-15T10:55:51;20.30;78.50
11744;DHT22;5929;51.906;7.674;2022-07-15T10:58:18;20.50;76.50
11744;DHT22;5929;51.906;7.674;2022-07-15T11:00:46;20.40;76.90
11744;DHT22;5929;51.906;7.674;2022-07-15T11:03:15;20.40;77.20
11744;DHT22;5929;51.906;7.674;2022-07-15T11:06:02;20.90;78.10
11744;DHT22;5929;51.906;7.674;2022-07-15T11:08:49;21.20;72.90
11744;DHT22;5929;51.906;7.674;2022-07-15T11:11:49;21.10;72.50
11744;DHT22;5929;51.906;7.674;2022-07-15T11:14:44;21.30;72.70
11744;DHT22;5929;51.906;7.674;2022-07-15T11:17:13;21.40;75.10
11744;DHT22;5929;51.906;7.674;2022-07-15T11:19:42;21.50;74.10
11744;DHT22;5929;51.906;7.674;2022-07-15T11:22:12;21.60;71.80
11744;DHT22;5929;51.906;7.674;2022-07-15T11:24:39;21.30;72.70
11744;DHT22;5929;51.906;7.674;2022-07-15T11:27:07;21.20;72.20
11744;DHT22;5929;51.906;7.674;2022-07-15T11:29:45;21.00;73.30
11744;DHT22;5929;51.906;7.674;2022-07-15T11:32:14;21.10;75.90
11744;DHT22;5929;51.906;7.674;2022-07-15T11:34:43;21.30;74.50
11744;DHT22;5929;51.906;7.674;2022-07-15T11:37:10;22.00;73.00
11744;DHT22;5929;51.906;7.674;2022-07-15T11:39:38;23.10;70.90
11744;DHT22;5929;51.906;7.674;2022-07-15T11:42:06;23.20;68.50
11744;DHT22;5929;51.906;7.674;2022-07-15T11:45:00;23.80;67.30
11744;DHT22;5929;51.906;7.674;2022-07-15T11:47:27;24.20;68.00
11744;DHT22;5929;51.906;7.674;2022-07-15T11:49:58;24.70;64.60
11744;DHT22;5929;51.906;7.674;2022-07-15T11:52:26;24.50;66.40
11744;DHT22;5929;51.906;7.674;2022-07-15T11:54:53;24.60;66.00
11744;DHT22;5929;51.906;7.674;2022-07-15T11:57:22;24.90;64.30
11744;DHT22;5929;51.906;7.674;2022-07-15T11:59:52;24.70;62.80
11744;DHT22;5929;51.906;7.674;2022-07-15T12:02:22;25.10;62.70
11744;DHT22;5929;51.906;7.674;2022-07-15T12:04:49;25.40;60.80
11744;DHT22;5929;51.906;7.674;2022-07-15T12:07:16;25.10;61.00
11744;DHT22;5929;51.906;7.674;2022-07-15T12:09:44;25.50;60.10
11744;DHT22;5929;51.906;7.674;2022-07-15T12:12:12;25.10;58.70
11744;DHT22;5929;51.906;7.674;2022-07-15T12:14:41;24.80;61.30
11744;DHT22;5929;51.906;7.674;2022-07-15T12:17:08;24.60;59.90
11744;DHT22;5929;51.906;7.674;2022-07-15T12:19:36;24.20;63.50
11744;DHT22;5929;51.906;7.674;2022-07-15T12:22:05;23.70;61.80
11744;DHT22;5929;51.906;7.674;2022-07-15T12:24:39;23.40;64.50
11744;DHT22;5929;51.906;7.674;2022-07-15T12:27:07;23.10;63.00
11744;DHT22;5929;51.906;7.674;2022-07-15T12:29:35;22.50;64.70
11744;DHT22;5929;51.906;7.674;2022-07-15T12:32:05;23.30;66.90
11744;DHT22;5929;51.906;7.674;2022-07-15T12:34:53;23.70;64.30
11744;DHT22;5929;51.906;7.674;2022-07-15T12:37:21;23.20;64.30
11744;DHT22;5929;51.906;7.674;2022-07-15T12:39:57;22.70;64.50
11744;DHT22;5929;51.906;7.674;2022-07-15T12:42:30;22.50;65.10
11744;DHT22;5929;51.906;7.674;2022-07-15T12:45:11;22.10;65.70
11744;DHT22;5929;51.906;7.674;2022-07-15T12:47:58;22.10;66.50
11744;DHT22;5929;51.906;7.674;2022-07-15T12:50:26;22.10;67.60
11744;DHT22;5929;51.906;7.674;2022-07-15T12:52:54;22.30;65.40
11744;DHT22;5929;51.906;7.674;2022-07-15T12:55:22;22.40;65.40
11744;DHT22;5929;51.906;7.674;2022-07-15T12:58:02;23.20;64.10
11744;DHT22;5929;51.906;7.674;2022-07-15T13:00:29;23.50;62.30
11744;DHT22;5929;51.906;7.674;2022-07-15T13:03:03;23.20;62.20
11744;DHT22;5929;51.906;7.674;2022-07-15T13:05:32;22.50;63.10
11744;DHT22;5929;51.906;7.674;2022-07-15T13:08:00;22.30;63.30
11744;DHT22;5929;51.906;7.674;2022-07-15T13:10:28;22.20;64.30
11744;DHT22;5929;51.906;7.674;2022-07-15T13:12:55;22.40;64.30
11744;DHT22;5929;51.906;7.674;2022-07-15T13:15:23;22.90;64.00
11744;DHT22;5929;51.906;7.674;2022-07-15T13:17:50;23.20;62.80
11744;DHT22;5929;51.906;7.674;2022-07-15T13:20:19;23.00;64.40
11744;DHT22;5929;51.906;7.674;2022-07-15T13:22:46;23.80;64.90
11744;DHT22;5929;51.906;7.674;2022-07-15T13:25:13;24.60;63.60
11744;DHT22;5929;51.906;7.674;2022-07-15T13:27:42;24.20;59.70
11744;DHT22;5929;51.906;7.674;2022-07-15T13:30:10;23.50;59.70
11744;DHT22;5929;51.906;7.674;2022-07-15T13:32:38;23.10;61.00
11744;DHT22;5929;51.906;7.674;2022-07-15T13:35:06;22.70;63.00
11744;DHT22;5929;51.906;7.674;2022-07-15T13:37:35;22.80;63.10
11744;DHT22;5929;51.906;7.674;2022-07-15T13:40:02;22.80;63.80
11744;DHT22;5929;51.906;7.674;2022-07-15T13:42:29;23.50;61.20
11744;DHT22;5929;51.906;7.674;2022-07-15T13:44:56;23.60;60.20
11744;DHT22;5929;51.906;7.674;2022-07-15T13:47:23;23.50;60.60
11744;DHT22;5929;51.906;7.674;2022-07-15T13:49:50;23.40;63.80
11744;DHT22;5929;51.906;7.674;2022-07-15T13:52:42;23.30;62.70
11744;DHT22;5929;51.906;7.674;2022-07-15T13:55:09;23.30;61.50
11744;DHT22;5929;51.906;7.674;2022-07-15T13:57:39;23.30;61.10
11744;DHT22;5929;51.906;7.674;2022-07-15T14:00:11;23.10;61.50
11744;DHT22;5929;51.906;7.674;2022-07-15T14:02:38;23.10;61.50
11744;DHT22;5929;51.906;7.674;2022-07-15T14:05:06;23.00;61.50
11744;DHT22;5929;51.906;7.674;2022-07-15T14:07:34;22.70;62.10
11744;DHT22;5929;51.906;7.674;2022-07-15T14:10:03;22.70;62.10
11744;DHT22;5929;51.906;7.674;2022-07-15T14:12:30;22.80;62.30
11744;DHT22;5929;51.906;7.674;2022-07-15T14:14:57;22.80;61.90
11744;DHT22;5929;51.906;7.674;2022-07-15T14:17:24;22.80;61.80
11744;DHT22;5929;51.906;7.674;2022-07-15T14:19:51;22.80;62.30
11744;DHT22;5929;51.906;7.674;2022-07-15T14:22:20;22.90;62.10
11744;DHT22;5929;51.906;7.674;2022-07-15T14:24:47;23.00;62.90
11744;DHT22;5929;51.906;7.674;2022-07-15T14:27:15;23.10;61.60
11744;DHT22;5929;51.906;7.674;2022-07-15T14:29:42;22.90;63.10
11744;DHT22;5929;51.906;7.674;2022-07-15T14:32:09;23.00;62.70
11744;DHT22;5929;51.906;7.674;2022-07-15T14:34:36;23.00;62.30
11744;DHT22;5929;51.906;7.674;2022-07-15T14:37:02;23.10;62.30
11744;DHT22;5929;51.906;7.674;2022-07-15T14:39:29;23.30;60.60
11744;DHT22;5929;51.906;7.674;2022-07-15T14:41:56;23.00;62.90
11744;DHT22;5929;51.906;7.674;2022-07-15T14:44:24;23.00;63.20
11744;DHT22;5929;51.906;7.674;2022-07-15T14:46:51;23.30;62.70
11744;DHT22;5929;51.906;7.674;2022-07-15T14:49:18;23.50;60.00
11744;DHT22;5929;51.906;7.674;2022-07-15T14:51:45;23.50;59.80
11744;DHT22;5929;51.906;7.674;2022-07-15T14:54:12;23.20;61.30
11744;DHT22;5929;51.906;7.674;2022-07-15T14:56:41;22.80;62.40
11744;DHT22;5929;51.906;7.674;2022-07-15T14:59:08;22.80;62.70
11744;DHT22;5929;51.906;7.674;2022-07-15T15:01:36;23.00;64.90
11744;DHT22;5929;51.906;7.674;2022-07-15T15:04:03;23.00;62.20
11744;DHT22;5929;51.906;7.674;2022-07-15T15:06:31;22.80;62.50
11744;DHT22;5929;51.906;7.674;2022-07-15T15:08:58;22.50;62.30
11744;DHT22;5929;51.906;7.674;2022-07-15T15:11:25;22.50;63.30
11744;DHT22;5929;51.906;7.674;2022-07-15T15:13:52;22.40;63.30
11744;DHT22;5929;51.906;7.674;2022-07-15T15:16:18;22.40;63.00
11744;DHT22;5929;51.906;7.674;2022-07-15T15:18:47;22.30;63.30
11744;DHT22;5929;51.906;7.674;2022-07-15T15:21:13;22.10;63.30
11744;DHT22;5929;51.906;7.674;2022-07-15T15:23:40;22.10;63.00
11744;DHT22;5929;51.906;7.674;2022-07-15T15:26:07;22.20;63.20
11744;DHT22;5929;51.906;7.674;2022-07-15T15:28:51;22.30;61.40
11744;DHT22;5929;51.906;7.674;2022-07-15T15:31:18;22.10;61.80
11744;DHT22;5929;51.906;7.674;2022-07-15T15:33:47;22.10;62.10
11744;DHT22;5929;51.906;7.674;2022-07-15T15:36:14;22.10;62.10
11744;DHT22;5929;51.906;7.674;2022-07-15T15:38:41;22.10;62.50
11744;DHT22;5929;51.906;7.674;2022-07-15T15:41:08;22.00;64.10
11744;DHT22;5929;51.906;7.674;2022-07-15T15:43:34;22.10;63.30
11744;DHT22;5929;51.906;7.674;2022-07-15T15:46:02;22.00;61.80
11744;DHT22;5929;51.906;7.674;2022-07-15T15:48:29;22.00;63.10
11744;DHT22;5929;51.906;7.674;2022-07-15T15:50:58;21.90;62.20
11744;DHT22;5929;51.906;7.674;2022-07-15T15:53:25;21.90;63.00
11744;DHT22;5929;51.906;7.674;2022-07-15T15:55:52;21.90;63.40